sensor_id;sensor_type;location;lat;lon;timestamp;P1;durP1;ratioP1;P2;durP2;ratioP2
2011;SDS011;1009;51.436;6.972;2023-05-07T00:01:40;2.30;;;2.10;;
2011;SDS011;1009;51.436;6.972;2023-05-07T00:04:08;3.73;;;1.93;;
2011;SDS011;1009;51.436;6.972;2023-05-07T00:06:35;3.60;;;2.17;;
2011;SDS011;1009;51.436;6.972;2023-05-07T00:09:02;2.60;;;2.20;;
2011;SDS011;1009;51.436;6.972;2023-05-07T00:11:29;2.63;;;2.43;;
2011;SDS011;1009;51.436;6.972;2023-05-07T00:13:56;3.40;;;1.90;;
2011;SDS011;1009;51.436;6.972;2023-05-07T00:16:22;3.33;;;2.30;;
2011;SDS011;1009;51.436;6.972;2023-05-07T00:18:49;2.97;;;2.27;;
2011;SDS011;1009;51.436;6.972;2023-05-07T00:21:18;2.30;;;1.80;;
2011;SDS011;1009;51.436;6.972;2023-05-07T00:23:46;3.37;;;2.20;;
2011;SDS011;1009;51.436;6.972;2023-05-07T00:26:13;2.00;;;1.80;;
2011;SDS011;1009;51.436;6.972;2023-05-07T00:28:40;1.93;;;1.50;;
2011;SDS011;1009;51.436;6.972;2023-05-07T00:31:07;4.20;;;1.70;;
2011;SDS011;1009;51.436;6.972;2023-05-07T00:33:33;2.57;;;1.43;;
2011;SDS011;1009;51.436;6.972;2023-05-07T00:36:00;3.30;;;2.20;;
2011;SDS011;1009;51.436;6.972;2023-05-07T00:38:28;2.27;;;2.07;;
2011;SDS011;1009;51.436;6.972;2023-05-07T00:40:55;3.40;;;2.43;;
2011;SDS011;1009;51.436;6.972;2023-05-07T00:43:22;3.17;;;2.10;;
2011;SDS011;1009;51.436;6.972;2023-05-07T00:45:48;2.27;;;1.93;;
2011;SDS011;1009;51.436;6.972;2023-05-07T00:48:15;4.13;;;2.50;;
2011;SDS011;1009;51.436;6.972;2023-05-07T00:50:42;2.80;;;2.50;;
2011;SDS011;1009;51.436;6.972;2023-05-07T00:53:09;2.37;;;2.17;;
2011;SDS011;1009;51.436;6.972;2023-05-07T00:55:38;4.77;;;2.50;;
2011;SDS011;1009;51.436;6.972;2023-05-07T00:58:05;6.03;;;3.07;;
2011;SDS011;1009;51.436;6.972;2023-05-07T01:00:33;4.40;;;3.60;;
2011;SDS011;1009;51.436;6.972;2023-05-07T01:03:00;3.00;;;2.53;;
2011;SDS011;1009;51.436;6.972;2023-05-07T01:05:27;3.57;;;2.30;;
2011;SDS011;1009;51.436;6.972;2023-05-07T01:07:58;2.57;;;2.37;;
2011;SDS011;1009;51.436;6.972;2023-05-07T01:10:25;5.00;;;2.40;;
2011;SDS011;1009;51.436;6.972;2023-05-07T01:12:54;3.90;;;2.30;;
2011;SDS011;1009;51.436;6.972;2023-05-07T01:15:23;3.83;;;2.37;;
2011;SDS011;1009;51.436;6.972;2023-05-07T01:17:53;3.47;;;2.40;;
2011;SDS011;1009;51.436;6.972;2023-05-07T01:20:19;3.30;;;2.70;;
2011;SDS011;1009;51.436;6.972;2023-05-07T01:22:51;3.73;;;2.43;;
2011;SDS011;1009;51.436;6.972;2023-05-07T01:25:18;2.77;;;2.50;;
2011;SDS011;1009;51.436;6.972;2023-05-07T01:27:45;2.27;;;2.07;;
2011;SDS011;1009;51.436;6.972;2023-05-07T01:30:12;2.00;;;1.80;;
2011;SDS011;1009;51.436;6.972;2023-05-07T01:32:40;3.17;;;1.80;;
2011;SDS011;1009;51.436;6.972;2023-05-07T01:35:10;4.33;;;2.40;;
2011;SDS011;1009;51.436;6.972;2023-05-07T01:37:39;2.33;;;2.13;;
2011;SDS011;1009;51.436;6.972;2023-05-07T01:40:09;2.73;;;2.10;;
2011;SDS011;1009;51.436;6.972;2023-05-07T01:42:36;3.60;;;3.17;;
2011;SDS011;1009;51.436;6.972;2023-05-07T01:45:04;5.13;;;3.80;;
2011;SDS011;1009;51.436;6.972;2023-05-07T01:47:31;5.90;;;4.37;;
2011;SDS011;1009;51.436;6.972;2023-05-07T01:49:59;3.83;;;3.50;;
2011;SDS011;1009;51.436;6.972;2023-05-07T01:52:27;4.80;;;4.30;;
2011;SDS011;1009;51.436;6.972;2023-05-07T01:54:54;4.33;;;3.93;;
2011;SDS011;1009;51.436;6.972;2023-05-07T01:57:22;5.97;;;4.40;;
2011;SDS011;1009;51.436;6.972;2023-05-07T01:59:49;5.97;;;4.47;;
2011;SDS011;1009;51.436;6.972;2023-05-07T02:02:15;4.33;;;3.70;;
2011;SDS011;1009;51.436;6.972;2023-05-07T02:04:42;4.33;;;3.40;;
2011;SDS011;1009;51.436;6.972;2023-05-07T02:07:09;6.37;;;3.80;;
2011;SDS011;1009;51.436;6.972;2023-05-07T02:09:36;5.17;;;4.00;;
2011;SDS011;1009;51.436;6.972;2023-05-07T02:12:03;8.30;;;4.00;;
2011;SDS011;1009;51.436;6.972;2023-05-07T02:14:31;4.20;;;3.10;;
2011;SDS011;1009;51.436;6.972;2023-05-07T02:16:58;4.30;;;3.90;;
2011;SDS011;1009;51.436;6.972;2023-05-07T02:19:25;3.90;;;3.30;;
2011;SDS011;1009;51.436;6.972;2023-05-07T02:21:51;4.20;;;3.30;;
2011;SDS011;1009;51.436;6.972;2023-05-07T02:24:19;6.37;;;3.60;;
2011;SDS011;1009;51.436;6.972;2023-05-07T02:26:46;6.73;;;3.87;;
2011;SDS011;1009;51.436;6.972;2023-05-07T02:29:12;4.60;;;3.17;;
2011;SDS011;1009;51.436;6.972;2023-05-07T02:31:40;4.17;;;3.37;;
2011;SDS011;1009;51.436;6.972;2023-05-07T02:34:07;3.43;;;3.13;;
2011;SDS011;1009;51.436;6.972;2023-05-07T02:36:34;4.70;;;3.97;;
2011;SDS011;1009;51.436;6.972;2023-05-07T02:39:00;8.00;;;3.67;;
2011;SDS011;1009;51.436;6.972;2023-05-07T02:41:27;5.27;;;4.23;;
2011;SDS011;1009;51.436;6.972;2023-05-07T02:43:54;5.57;;;4.43;;
2011;SDS011;1009;51.436;6.972;2023-05-07T02:46:20;5.13;;;3.87;;
2011;SDS011;1009;51.436;6.972;2023-05-07T02:48:49;3.90;;;3.47;;
2011;SDS011;1009;51.436;6.972;2023-05-07T02:51:17;4.60;;;4.00;;
2011;SDS011;1009;51.436;6.972;2023-05-07T02:53:45;8.73;;;4.43;;
2011;SDS011;1009;51.436;6.972;2023-05-07T02:56:12;4.47;;;3.90;;
2011;SDS011;1009;51.436;6.972;2023-05-07T02:58:39;4.93;;;2.90;;
2011;SDS011;1009;51.436;6.972;2023-05-07T03:01:07;3.07;;;2.77;;
2011;SDS011;1009;51.436;6.972;2023-05-07T03:03:34;4.50;;;3.53;;
2011;SDS011;1009;51.436;6.972;2023-05-07T03:06:02;5.53;;;3.50;;
2011;SDS011;1009;51.436;6.972;2023-05-07T03:08:29;3.40;;;3.07;;
2011;SDS011;1009;51.436;6.972;2023-05-07T03:10:56;3.90;;;3.60;;
2011;SDS011;1009;51.436;6.972;2023-05-07T03:13:23;6.80;;;3.90;;
2011;SDS011;1009;51.436;6.972;2023-05-07T03:15:55;3.97;;;3.53;;
2011;SDS011;1009;51.436;6.972;2023-05-07T03:18:22;4.57;;;3.60;;
2011;SDS011;1009;51.436;6.972;2023-05-07T03:20:49;4.10;;;3.70;;
2011;SDS011;1009;51.436;6.972;2023-05-07T03:23:17;5.67;;;3.80;;
2011;SDS011;1009;51.436;6.972;2023-05-07T03:25:44;3.90;;;3.50;;
2011;SDS011;1009;51.436;6.972;2023-05-07T03:28:10;5.53;;;3.40;;
2011;SDS011;1009;51.436;6.972;2023-05-07T03:30:37;5.67;;;3.60;;
2011;SDS011;1009;51.436;6.972;2023-05-07T03:33:09;3.73;;;3.43;;
2011;SDS011;1009;51.436;6.972;2023-05-07T03:35:36;5.87;;;4.47;;
2011;SDS011;1009;51.436;6.972;2023-05-07T03:38:03;4.10;;;3.33;;
2011;SDS011;1009;51.436;6.972;2023-05-07T03:40:31;3.97;;;3.60;;
2011;SDS011;1009;51.436;6.972;2023-05-07T03:42:58;6.23;;;4.00;;
2011;SDS011;1009;51.436;6.972;2023-05-07T03:45:25;4.13;;;3.67;;
2011;SDS011;1009;51.436;6.972;2023-05-07T03:47:52;4.27;;;3.87;;
2011;SDS011;1009;51.436;6.972;2023-05-07T03:50:19;3.70;;;3.43;;
2011;SDS011;1009;51.436;6.972;2023-05-07T03:52:46;4.03;;;3.63;;
2011;SDS011;1009;51.436;6.972;2023-05-07T03:55:12;4.30;;;3.30;;
2011;SDS011;1009;51.436;6.972;2023-05-07T03:57:41;5.27;;;4.47;;
2011;SDS011;1009;51.436;6.972;2023-05-07T04:00:07;4.30;;;3.90;;
2011;SDS011;1009;51.436;6.972;2023-05-07T04:02:35;7.60;;;4.93;;
2011;SDS011;1009;51.436;6.972;2023-05-07T04:05:01;5.47;;;3.80;;
2011;SDS011;1009;51.436;6.972;2023-05-07T04:07:28;4.37;;;3.57;;
2011;SDS011;1009;51.436;6.972;2023-05-07T04:10:01;3.93;;;3.47;;
2011;SDS011;1009;51.436;6.972;2023-05-07T04:12:30;5.40;;;3.77;;
2011;SDS011;1009;51.436;6.972;2023-05-07T04:14:58;4.30;;;3.80;;
2011;SDS011;1009;51.436;6.972;2023-05-07T04:17:25;3.20;;;2.90;;
2011;SDS011;1009;51.436;6.972;2023-05-07T04:19:52;6.57;;;4.63;;
2011;SDS011;1009;51.436;6.972;2023-05-07T04:22:19;3.73;;;3.40;;
2011;SDS011;1009;51.436;6.972;2023-05-07T04:24:45;6.80;;;3.80;;
2011;SDS011;1009;51.436;6.972;2023-05-07T04:27:12;4.10;;;3.70;;
2011;SDS011;1009;51.436;6.972;2023-05-07T04:29:39;4.10;;;3.70;;
2011;SDS011;1009;51.436;6.972;2023-05-07T04:32:13;4.30;;;3.63;;
2011;SDS011;1009;51.436;6.972;2023-05-07T04:34:40;6.17;;;4.60;;
2011;SDS011;1009;51.436;6.972;2023-05-07T04:37:06;5.90;;;4.87;;
2011;SDS011;1009;51.436;6.972;2023-05-07T04:39:33;6.33;;;4.53;;
2011;SDS011;1009;51.436;6.972;2023-05-07T04:42:00;6.57;;;4.80;;
2011;SDS011;1009;51.436;6.972;2023-05-07T04:44:28;4.50;;;4.03;;
2011;SDS011;1009;51.436;6.972;2023-05-07T04:46:56;6.87;;;5.30;;
2011;SDS011;1009;51.436;6.972;2023-05-07T04:49:24;5.03;;;4.40;;
2011;SDS011;1009;51.436;6.972;2023-05-07T04:51:50;4.97;;;4.47;;
2011;SDS011;1009;51.436;6.972;2023-05-07T04:54:17;5.50;;;4.70;;
2011;SDS011;1009;51.436;6.972;2023-05-07T04:56:44;5.50;;;4.20;;
2011;SDS011;1009;51.436;6.972;2023-05-07T04:59:10;9.00;;;6.00;;
2011;SDS011;1009;51.436;6.972;2023-05-07T05:01:37;7.37;;;6.57;;
2011;SDS011;1009;51.436;6.972;2023-05-07T05:04:04;8.40;;;6.93;;
2011;SDS011;1009;51.436;6.972;2023-05-07T05:06:32;8.30;;;6.20;;
2011;SDS011;1009;51.436;6.972;2023-05-07T05:08:58;10.20;;;7.33;;
2011;SDS011;1009;51.436;6.972;2023-05-07T05:11:25;11.80;;;8.30;;
2011;SDS011;1009;51.436;6.972;2023-05-07T05:13:52;8.17;;;7.27;;
2011;SDS011;1009;51.436;6.972;2023-05-07T05:16:19;9.00;;;7.10;;
2011;SDS011;1009;51.436;6.972;2023-05-07T05:18:45;10.20;;;7.57;;
2011;SDS011;1009;51.436;6.972;2023-05-07T05:21:12;11.00;;;8.03;;
2011;SDS011;1009;51.436;6.972;2023-05-07T05:23:40;7.90;;;6.93;;
2011;SDS011;1009;51.436;6.972;2023-05-07T05:26:07;7.13;;;5.90;;
2011;SDS011;1009;51.436;6.972;2023-05-07T05:28:33;9.83;;;7.33;;
2011;SDS011;1009;51.436;6.972;2023-05-07T05:31:04;9.03;;;7.60;;
2011;SDS011;1009;51.436;6.972;2023-05-07T05:33:31;10.17;;;7.93;;
2011;SDS011;1009;51.436;6.972;2023-05-07T05:35:57;10.47;;;7.20;;
2011;SDS011;1009;51.436;6.972;2023-05-07T05:38:24;8.30;;;7.40;;
2011;SDS011;1009;51.436;6.972;2023-05-07T05:40:53;11.70;;;8.13;;
2011;SDS011;1009;51.436;6.972;2023-05-07T05:43:19;7.77;;;6.67;;
2011;SDS011;1009;51.436;6.972;2023-05-07T05:45:46;7.17;;;6.20;;
2011;SDS011;1009;51.436;6.972;2023-05-07T05:48:13;8.63;;;6.93;;
2011;SDS011;1009;51.436;6.972;2023-05-07T05:50:41;8.93;;;6.33;;
2011;SDS011;1009;51.436;6.972;2023-05-07T05:53:08;9.27;;;5.90;;
2011;SDS011;1009;51.436;6.972;2023-05-07T05:55:35;8.70;;;7.50;;
2011;SDS011;1009;51.436;6.972;2023-05-07T05:58:03;8.70;;;6.30;;
2011;SDS011;1009;51.436;6.972;2023-05-07T06:00:29;9.43;;;7.00;;
2011;SDS011;1009;51.436;6.972;2023-05-07T06:02:56;7.63;;;6.90;;
2011;SDS011;1009;51.436;6.972;2023-05-07T06:05:23;9.77;;;6.00;;
2011;SDS011;1009;51.436;6.972;2023-05-07T06:07:49;6.60;;;5.70;;
2011;SDS011;1009;51.436;6.972;2023-05-07T06:10:19;7.87;;;6.80;;
2011;SDS011;1009;51.436;6.972;2023-05-07T06:12:46;6.73;;;5.43;;
2011;SDS011;1009;51.436;6.972;2023-05-07T06:15:14;7.77;;;6.20;;
2011;SDS011;1009;51.436;6.972;2023-05-07T06:17:40;8.00;;;5.10;;
2011;SDS011;1009;51.436;6.972;2023-05-07T06:20:07;6.20;;;4.43;;
2011;SDS011;1009;51.436;6.972;2023-05-07T06:22:34;7.53;;;5.43;;
2011;SDS011;1009;51.436;6.972;2023-05-07T06:25:01;6.50;;;5.43;;
2011;SDS011;1009;51.436;6.972;2023-05-07T06:27:31;6.03;;;4.83;;
2011;SDS011;1009;51.436;6.972;2023-05-07T06:29:58;6.00;;;4.80;;
2011;SDS011;1009;51.436;6.972;2023-05-07T06:32:26;6.47;;;4.87;;
2011;SDS011;1009;51.436;6.972;2023-05-07T06:34:52;4.60;;;4.20;;
2011;SDS011;1009;51.436;6.972;2023-05-07T06:37:19;4.40;;;3.80;;
2011;SDS011;1009;51.436;6.972;2023-05-07T06:39:46;5.40;;;3.83;;
2011;SDS011;1009;51.436;6.972;2023-05-07T06:42:12;5.80;;;4.07;;
2011;SDS011;1009;51.436;6.972;2023-05-07T06:44:39;5.57;;;3.97;;
2011;SDS011;1009;51.436;6.972;2023-05-07T06:47:06;3.80;;;3.50;;
2011;SDS011;1009;51.436;6.972;2023-05-07T06:49:34;4.37;;;3.53;;
2011;SDS011;1009;51.436;6.972;2023-05-07T06:52:03;3.70;;;3.10;;
2011;SDS011;1009;51.436;6.972;2023-05-07T06:54:33;4.63;;;3.63;;
2011;SDS011;1009;51.436;6.972;2023-05-07T06:57:00;3.80;;;3.27;;
2011;SDS011;1009;51.436;6.972;2023-05-07T06:59:26;3.97;;;3.50;;
2011;SDS011;1009;51.436;6.972;2023-05-07T07:01:53;4.33;;;3.13;;
2011;SDS011;1009;51.436;6.972;2023-05-07T07:04:20;3.20;;;2.90;;
2011;SDS011;1009;51.436;6.972;2023-05-07T07:06:50;3.43;;;2.90;;
2011;SDS011;1009;51.436;6.972;2023-05-07T07:09:18;5.03;;;3.20;;
2011;SDS011;1009;51.436;6.972;2023-05-07T07:11:45;8.23;;;3.70;;
2011;SDS011;1009;51.436;6.972;2023-05-07T07:14:11;3.50;;;3.20;;
2011;SDS011;1009;51.436;6.972;2023-05-07T07:16:38;4.10;;;2.93;;
2011;SDS011;1009;51.436;6.972;2023-05-07T07:19:05;3.80;;;2.40;;
2011;SDS011;1009;51.436;6.972;2023-05-07T07:21:32;2.97;;;2.50;;
2011;SDS011;1009;51.436;6.972;2023-05-07T07:24:00;3.00;;;2.43;;
2011;SDS011;1009;51.436;6.972;2023-05-07T07:26:27;3.50;;;3.00;;
2011;SDS011;1009;51.436;6.972;2023-05-07T07:28:53;3.00;;;2.70;;
2011;SDS011;1009;51.436;6.972;2023-05-07T07:31:20;3.27;;;2.80;;
2011;SDS011;1009;51.436;6.972;2023-05-07T07:33:47;4.60;;;2.50;;
2011;SDS011;1009;51.436;6.972;2023-05-07T07:36:15;3.27;;;2.67;;
2011;SDS011;1009;51.436;6.972;2023-05-07T07:38:41;4.53;;;2.60;;
2011;SDS011;1009;51.436;6.972;2023-05-07T07:41:10;4.10;;;2.87;;
2011;SDS011;1009;51.436;6.972;2023-05-07T07:43:36;4.20;;;3.40;;
2011;SDS011;1009;51.436;6.972;2023-05-07T07:46:03;4.17;;;2.43;;
2011;SDS011;1009;51.436;6.972;2023-05-07T07:48:30;3.60;;;2.73;;
2011;SDS011;1009;51.436;6.972;2023-05-07T07:50:57;2.93;;;2.63;;
2011;SDS011;1009;51.436;6.972;2023-05-07T07:53:23;3.30;;;2.73;;
2011;SDS011;1009;51.436;6.972;2023-05-07T07:55:50;2.90;;;2.30;;
2011;SDS011;1009;51.436;6.972;2023-05-07T07:58:18;4.40;;;3.00;;
2011;SDS011;1009;51.436;6.972;2023-05-07T08:00:47;3.00;;;2.70;;
2011;SDS011;1009;51.436;6.972;2023-05-07T08:03:13;5.40;;;2.97;;
2011;SDS011;1009;51.436;6.972;2023-05-07T08:05:41;2.50;;;2.20;;
2011;SDS011;1009;51.436;6.972;2023-05-07T08:08:08;6.00;;;2.73;;
2011;SDS011;1009;51.436;6.972;2023-05-07T08:10:35;2.43;;;2.23;;
2011;SDS011;1009;51.436;6.972;2023-05-07T08:13:04;2.63;;;2.30;;
2011;SDS011;1009;51.436;6.972;2023-05-07T08:15:38;2.60;;;2.20;;
2011;SDS011;1009;51.436;6.972;2023-05-07T08:18:05;2.50;;;2.10;;
2011;SDS011;1009;51.436;6.972;2023-05-07T08:20:31;2.80;;;2.60;;
2011;SDS011;1009;51.436;6.972;2023-05-07T08:23:01;3.37;;;2.30;;
2011;SDS011;1009;51.436;6.972;2023-05-07T08:25:27;3.40;;;2.73;;
2011;SDS011;1009;51.436;6.972;2023-05-07T08:27:54;2.20;;;2.00;;
2011;SDS011;1009;51.436;6.972;2023-05-07T08:30:21;2.53;;;2.20;;
2011;SDS011;1009;51.436;6.972;2023-05-07T08:32:49;2.30;;;2.10;;
2011;SDS011;1009;51.436;6.972;2023-05-07T08:35:16;6.47;;;2.33;;
2011;SDS011;1009;51.436;6.972;2023-05-07T08:37:42;2.27;;;1.70;;
2011;SDS011;1009;51.436;6.972;2023-05-07T08:40:10;3.00;;;2.00;;
2011;SDS011;1009;51.436;6.972;2023-05-07T08:42:37;3.10;;;1.93;;
2011;SDS011;1009;51.436;6.972;2023-05-07T08:45:07;5.47;;;2.30;;
2011;SDS011;1009;51.436;6.972;2023-05-07T08:47:42;5.50;;;2.30;;
2011;SDS011;1009;51.436;6.972;2023-05-07T08:50:12;2.60;;;2.03;;
2011;SDS011;1009;51.436;6.972;2023-05-07T08:52:40;2.10;;;1.90;;
2011;SDS011;1009;51.436;6.972;2023-05-07T08:55:07;2.70;;;2.23;;
2011;SDS011;1009;51.436;6.972;2023-05-07T08:57:35;2.27;;;2.07;;
2011;SDS011;1009;51.436;6.972;2023-05-07T09:00:02;5.20;;;1.87;;
2011;SDS011;1009;51.436;6.972;2023-05-07T09:02:29;2.10;;;1.70;;
2011;SDS011;1009;51.436;6.972;2023-05-07T09:04:55;2.10;;;1.80;;
2011;SDS011;1009;51.436;6.972;2023-05-07T09:07:23;2.40;;;2.20;;
2011;SDS011;1009;51.436;6.972;2023-05-07T09:09:51;2.63;;;2.00;;
2011;SDS011;1009;51.436;6.972;2023-05-07T09:12:18;2.27;;;2.00;;
2011;SDS011;1009;51.436;6.972;2023-05-07T09:14:46;2.17;;;1.90;;
2011;SDS011;1009;51.436;6.972;2023-05-07T09:17:14;2.20;;;1.80;;
2011;SDS011;1009;51.436;6.972;2023-05-07T09:19:42;2.30;;;1.57;;
2011;SDS011;1009;51.436;6.972;2023-05-07T09:22:10;1.37;;;1.03;;
2011;SDS011;1009;51.436;6.972;2023-05-07T09:24:38;1.87;;;1.23;;
2011;SDS011;1009;51.436;6.972;2023-05-07T09:27:05;1.40;;;1.30;;
2011;SDS011;1009;51.436;6.972;2023-05-07T09:29:38;2.80;;;1.10;;
2011;SDS011;1009;51.436;6.972;2023-05-07T09:32:05;1.40;;;1.00;;
2011;SDS011;1009;51.436;6.972;2023-05-07T09:34:35;2.87;;;1.43;;
2011;SDS011;1009;51.436;6.972;2023-05-07T09:37:02;3.10;;;1.83;;
2011;SDS011;1009;51.436;6.972;2023-05-07T09:39:39;2.80;;;1.70;;
2011;SDS011;1009;51.436;6.972;2023-05-07T09:42:06;2.13;;;1.57;;
2011;SDS011;1009;51.436;6.972;2023-05-07T09:44:34;2.33;;;1.93;;
2011;SDS011;1009;51.436;6.972;2023-05-07T09:47:01;2.30;;;2.10;;
2011;SDS011;1009;51.436;6.972;2023-05-07T09:49:33;2.30;;;1.87;;
2011;SDS011;1009;51.436;6.972;2023-05-07T09:52:01;2.40;;;1.87;;
2011;SDS011;1009;51.436;6.972;2023-05-07T09:54:28;2.17;;;1.80;;
2011;SDS011;1009;51.436;6.972;2023-05-07T09:56:57;2.57;;;2.10;;
2011;SDS011;1009;51.436;6.972;2023-05-07T09:59:24;2.23;;;2.00;;
2011;SDS011;1009;51.436;6.972;2023-05-07T10:01:52;2.77;;;1.80;;
2011;SDS011;1009;51.436;6.972;2023-05-07T10:04:23;2.37;;;2.17;;
2011;SDS011;1009;51.436;6.972;2023-05-07T10:06:51;1.80;;;1.57;;
2011;SDS011;1009;51.436;6.972;2023-05-07T10:09:18;5.07;;;2.30;;
2011;SDS011;1009;51.436;6.972;2023-05-07T10:11:45;2.50;;;1.70;;
2011;SDS011;1009;51.436;6.972;2023-05-07T10:14:15;5.03;;;1.60;;
2011;SDS011;1009;51.436;6.972;2023-05-07T10:16:42;3.40;;;2.33;;
2011;SDS011;1009;51.436;6.972;2023-05-07T10:19:09;2.80;;;2.17;;
2011;SDS011;1009;51.436;6.972;2023-05-07T10:21:36;2.30;;;1.70;;
2011;SDS011;1009;51.436;6.972;2023-05-07T10:24:05;2.20;;;1.90;;
2011;SDS011;1009;51.436;6.972;2023-05-07T10:26:38;2.40;;;2.20;;
2011;SDS011;1009;51.436;6.972;2023-05-07T10:29:10;3.13;;;2.40;;
2011;SDS011;1009;51.436;6.972;2023-05-07T10:31:47;3.23;;;1.90;;
2011;SDS011;1009;51.436;6.972;2023-05-07T10:34:21;2.27;;;2.07;;
2011;SDS011;1009;51.436;6.972;2023-05-07T10:36:50;2.33;;;2.10;;
2011;SDS011;1009;51.436;6.972;2023-05-07T10:39:19;3.20;;;1.97;;
2011;SDS011;1009;51.436;6.972;2023-05-07T10:41:46;2.27;;;1.70;;
2011;SDS011;1009;51.436;6.972;2023-05-07T10:44:24;3.93;;;2.10;;
2011;SDS011;1009;51.436;6.972;2023-05-07T10:47:04;3.03;;;2.10;;
2011;SDS011;1009;51.436;6.972;2023-05-07T10:49:34;2.17;;;2.00;;
2011;SDS011;1009;51.436;6.972;2023-05-07T10:52:10;2.50;;;2.30;;
2011;SDS011;1009;51.436;6.972;2023-05-07T10:54:39;2.30;;;2.10;;
2011;SDS011;1009;51.436;6.972;2023-05-07T11:00:00;2.40;;;1.60;;
2011;SDS011;1009;51.436;6.972;2023-05-07T11:05:29;2.70;;;2.13;;
2011;SDS011;1009;51.436;6.972;2023-05-07T11:07:57;2.20;;;2.00;;
2011;SDS011;1009;51.436;6.972;2023-05-07T11:10:28;4.10;;;2.50;;
2011;SDS011;1009;51.436;6.972;2023-05-07T11:13:14;4.00;;;2.30;;
2011;SDS011;1009;51.436;6.972;2023-05-07T11:15:42;2.97;;;2.20;;
2011;SDS011;1009;51.436;6.972;2023-05-07T11:18:10;3.40;;;2.47;;
2011;SDS011;1009;51.436;6.972;2023-05-07T11:20:52;2.93;;;2.30;;
2011;SDS011;1009;51.436;6.972;2023-05-07T11:26:24;2.33;;;2.13;;
2011;SDS011;1009;51.436;6.972;2023-05-07T11:28:53;3.10;;;2.80;;
2011;SDS011;1009;51.436;6.972;2023-05-07T11:31:21;3.50;;;2.50;;
2011;SDS011;1009;51.436;6.972;2023-05-07T11:33:49;3.27;;;2.97;;
2011;SDS011;1009;51.436;6.972;2023-05-07T11:36:17;2.67;;;2.23;;
2011;SDS011;1009;51.436;6.972;2023-05-07T11:38:45;3.40;;;1.87;;
2011;SDS011;1009;51.436;6.972;2023-05-07T11:41:12;2.20;;;2.00;;
2011;SDS011;1009;51.436;6.972;2023-05-07T11:43:53;3.53;;;2.80;;
2011;SDS011;1009;51.436;6.972;2023-05-07T11:46:27;2.47;;;2.27;;
2011;SDS011;1009;51.436;6.972;2023-05-07T11:48:54;3.20;;;2.60;;
2011;SDS011;1009;51.436;6.972;2023-05-07T11:51:23;2.97;;;2.27;;
2011;SDS011;1009;51.436;6.972;2023-05-07T11:53:51;2.87;;;2.50;;
2011;SDS011;1009;51.436;6.972;2023-05-07T11:56:19;2.87;;;2.30;;
2011;SDS011;1009;51.436;6.972;2023-05-07T11:58:46;2.70;;;2.50;;
2011;SDS011;1009;51.436;6.972;2023-05-07T12:01:14;5.27;;;2.57;;
2011;SDS011;1009;51.436;6.972;2023-05-07T12:03:43;2.70;;;2.20;;
2011;SDS011;1009;51.436;6.972;2023-05-07T12:06:12;3.50;;;2.13;;
2011;SDS011;1009;51.436;6.972;2023-05-07T12:08:41;4.07;;;2.40;;
2011;SDS011;1009;51.436;6.972;2023-05-07T12:11:10;2.70;;;2.30;;
2011;SDS011;1009;51.436;6.972;2023-05-07T12:13:40;3.80;;;2.50;;
2011;SDS011;1009;51.436;6.972;2023-05-07T12:16:09;3.70;;;2.33;;
2011;SDS011;1009;51.436;6.972;2023-05-07T12:18:36;2.43;;;2.23;;
2011;SDS011;1009;51.436;6.972;2023-05-07T12:21:04;4.90;;;2.83;;
2011;SDS011;1009;51.436;6.972;2023-05-07T12:23:32;7.03;;;3.43;;
2011;SDS011;1009;51.436;6.972;2023-05-07T12:26:04;3.20;;;2.70;;
2011;SDS011;1009;51.436;6.972;2023-05-07T12:28:37;3.37;;;2.93;;
2011;SDS011;1009;51.436;6.972;2023-05-07T12:31:05;3.40;;;3.10;;
2011;SDS011;1009;51.436;6.972;2023-05-07T12:33:32;5.57;;;2.93;;
2011;SDS011;1009;51.436;6.972;2023-05-07T12:36:02;3.70;;;3.00;;
2011;SDS011;1009;51.436;6.972;2023-05-07T12:38:35;3.90;;;2.97;;
2011;SDS011;1009;51.436;6.972;2023-05-07T12:41:04;5.90;;;3.47;;
2011;SDS011;1009;51.436;6.972;2023-05-07T12:43:32;4.17;;;3.20;;
2011;SDS011;1009;51.436;6.972;2023-05-07T12:46:00;3.70;;;3.30;;
2011;SDS011;1009;51.436;6.972;2023-05-07T12:48:29;3.30;;;3.00;;
2011;SDS011;1009;51.436;6.972;2023-05-07T12:50:57;4.27;;;3.00;;
2011;SDS011;1009;51.436;6.972;2023-05-07T12:53:25;3.10;;;2.80;;
2011;SDS011;1009;51.436;6.972;2023-05-07T12:55:54;3.63;;;3.07;;
2011;SDS011;1009;51.436;6.972;2023-05-07T12:58:24;3.40;;;2.90;;
2011;SDS011;1009;51.436;6.972;2023-05-07T13:00:52;3.23;;;2.87;;
2011;SDS011;1009;51.436;6.972;2023-05-07T13:03:23;3.40;;;3.10;;
2011;SDS011;1009;51.436;6.972;2023-05-07T13:05:51;4.30;;;3.60;;
2011;SDS011;1009;51.436;6.972;2023-05-07T13:08:24;2.87;;;2.60;;
2011;SDS011;1009;51.436;6.972;2023-05-07T13:10:52;4.70;;;3.63;;
2011;SDS011;1009;51.436;6.972;2023-05-07T13:13:19;3.37;;;3.07;;
2011;SDS011;1009;51.436;6.972;2023-05-07T13:15:50;4.67;;;3.47;;
2011;SDS011;1009;51.436;6.972;2023-05-07T13:18:16;5.00;;;3.67;;
2011;SDS011;1009;51.436;6.972;2023-05-07T13:20:43;5.20;;;3.50;;
2011;SDS011;1009;51.436;6.972;2023-05-07T13:23:10;6.03;;;3.97;;
2011;SDS011;1009;51.436;6.972;2023-05-07T13:25:37;3.37;;;3.07;;
2011;SDS011;1009;51.436;6.972;2023-05-07T13:28:03;3.67;;;3.37;;
2011;SDS011;1009;51.436;6.972;2023-05-07T13:30:30;4.90;;;4.10;;
2011;SDS011;1009;51.436;6.972;2023-05-07T13:32:58;3.90;;;3.27;;
2011;SDS011;1009;51.436;6.972;2023-05-07T13:35:25;4.47;;;4.03;;
2011;SDS011;1009;51.436;6.972;2023-05-07T13:37:53;4.13;;;3.53;;
2011;SDS011;1009;51.436;6.972;2023-05-07T13:40:20;7.80;;;5.57;;
2011;SDS011;1009;51.436;6.972;2023-05-07T13:42:47;6.10;;;4.73;;
2011;SDS011;1009;51.436;6.972;2023-05-07T13:45:14;7.13;;;5.03;;
2011;SDS011;1009;51.436;6.972;2023-05-07T13:47:41;5.33;;;4.60;;
2011;SDS011;1009;51.436;6.972;2023-05-07T13:50:12;7.50;;;5.60;;
2011;SDS011;1009;51.436;6.972;2023-05-07T13:52:40;9.07;;;5.70;;
2011;SDS011;1009;51.436;6.972;2023-05-07T13:55:08;5.37;;;4.67;;
2011;SDS011;1009;51.436;6.972;2023-05-07T13:57:35;8.70;;;5.00;;
2011;SDS011;1009;51.436;6.972;2023-05-07T14:00:02;9.30;;;4.90;;
2011;SDS011;1009;51.436;6.972;2023-05-07T14:02:30;6.27;;;5.63;;
2011;SDS011;1009;51.436;6.972;2023-05-07T14:04:56;8.50;;;5.73;;
2011;SDS011;1009;51.436;6.972;2023-05-07T14:07:24;7.33;;;5.83;;
2011;SDS011;1009;51.436;6.972;2023-05-07T14:09:51;9.37;;;5.67;;
2011;SDS011;1009;51.436;6.972;2023-05-07T14:12:18;8.20;;;5.73;;
2011;SDS011;1009;51.436;6.972;2023-05-07T14:14:44;6.30;;;5.70;;
2011;SDS011;1009;51.436;6.972;2023-05-07T14:17:11;9.87;;;7.00;;
2011;SDS011;1009;51.436;6.972;2023-05-07T14:19:38;7.77;;;6.33;;
2011;SDS011;1009;51.436;6.972;2023-05-07T14:22:05;8.17;;;5.77;;
2011;SDS011;1009;51.436;6.972;2023-05-07T14:24:33;9.80;;;6.00;;
2011;SDS011;1009;51.436;6.972;2023-05-07T14:27:00;8.90;;;6.17;;
2011;SDS011;1009;51.436;6.972;2023-05-07T14:29:27;6.40;;;5.50;;
2011;SDS011;1009;51.436;6.972;2023-05-07T14:31:54;8.03;;;5.60;;
2011;SDS011;1009;51.436;6.972;2023-05-07T14:34:21;8.93;;;7.33;;
2011;SDS011;1009;51.436;6.972;2023-05-07T14:36:48;10.37;;;7.00;;
2011;SDS011;1009;51.436;6.972;2023-05-07T14:39:14;10.30;;;7.53;;
2011;SDS011;1009;51.436;6.972;2023-05-07T14:41:43;8.87;;;7.93;;
2011;SDS011;1009;51.436;6.972;2023-05-07T14:44:09;11.13;;;6.97;;
2011;SDS011;1009;51.436;6.972;2023-05-07T14:46:36;14.30;;;8.07;;
2011;SDS011;1009;51.436;6.972;2023-05-07T14:49:03;12.00;;;8.80;;
2011;SDS011;1009;51.436;6.972;2023-05-07T14:51:29;9.50;;;7.80;;
2011;SDS011;1009;51.436;6.972;2023-05-07T14:53:56;11.77;;;7.90;;
2011;SDS011;1009;51.436;6.972;2023-05-07T14:56:23;12.23;;;8.30;;
2011;SDS011;1009;51.436;6.972;2023-05-07T14:58:51;12.40;;;7.57;;
2011;SDS011;1009;51.436;6.972;2023-05-07T15:01:18;13.57;;;8.60;;
2011;SDS011;1009;51.436;6.972;2023-05-07T15:03:52;10.30;;;8.00;;
2011;SDS011;1009;51.436;6.972;2023-05-07T15:06:19;10.70;;;7.57;;
2011;SDS011;1009;51.436;6.972;2023-05-07T15:08:46;9.70;;;7.70;;
2011;SDS011;1009;51.436;6.972;2023-05-07T15:11:13;10.47;;;7.90;;
2011;SDS011;1009;51.436;6.972;2023-05-07T15:13:41;11.20;;;8.03;;
2011;SDS011;1009;51.436;6.972;2023-05-07T15:16:09;7.93;;;7.03;;
2011;SDS011;1009;51.436;6.972;2023-05-07T15:18:36;10.50;;;7.77;;
2011;SDS011;1009;51.436;6.972;2023-05-07T15:21:03;9.33;;;7.37;;
2011;SDS011;1009;51.436;6.972;2023-05-07T15:23:30;8.63;;;6.90;;
2011;SDS011;1009;51.436;6.972;2023-05-07T15:25:57;10.13;;;8.00;;
2011;SDS011;1009;51.436;6.972;2023-05-07T15:28:24;8.70;;;7.50;;